KRDM/RDM METAR and TAF weather

Enter ICAO airport designator
Station Type Date Time Source
KRDM METAR 2019/10/23 06:56 UTC NOAA

KRDM 230656Z AUTO VRB03KT 10SM CLR 06/01 A3038 RMK AO2 SLP282 T00560011


Station Type Date Time Source
KRDM Decoded METAR 2019/10/23 06:56 UTC NOAA

REDMOND ROBERTS FIELD, OR, United States (KRDM) 44-15N 121-08W
Oct 23, 2019 - 02:56 AM EDT / 2019.10.23 0656 UTC
Wind: Variable at 3 MPH (3 KT):0
Visibility: 10 mile(s):0
Sky conditions: clear
Temperature: 42.1 F (5.6 C)
Dew Point: 34.0 F (1.1 C)
Relative Humidity: 72%
Pressure (altimeter): 30.38 in. Hg (1028 hPa)
ob: KRDM 230656Z AUTO VRB03KT 10SM CLR 06/01 A3038 RMK AO2 SLP282 T00560011
cycle: 7

Station Type Date Time Source
KRDM TAF 2019/10/23 06:24 UTC NOAA

TAF KRDM 230520Z 2306/2406 VRB04KT P6SM SCT200
FM230800 VRB03KT P6SM SCT250
FM232100 34008KT P6SM SCT250
FM240200 VRB03KT P6SM SCT250

Example: see airport list